createdAt,value
2022-08-23T00:01:35.664Z,96173.28
2022-08-23T00:04:02.056Z,96173.75
2022-08-23T00:06:28.417Z,96166.03
2022-08-23T00:08:54.778Z,96168.38
2022-08-23T00:11:21.141Z,96167.28
2022-08-23T00:13:48.487Z,96163.03
2022-08-23T00:16:14.912Z,96171.06
2022-08-23T00:18:41.270Z,96166.34
2022-08-23T00:21:14.076Z,96161.00
2022-08-23T00:23:40.436Z,96162.56
2022-08-23T00:26:06.839Z,96155.66
2022-08-23T00:28:33.216Z,96145.69
2022-08-23T00:30:59.572Z,96146.03
2022-08-23T00:33:25.941Z,96143.34
2022-08-23T00:35:52.329Z,96152.50
2022-08-23T00:38:34.525Z,96157.84
2022-08-23T00:41:01.296Z,96148.69
2022-08-23T00:43:27.659Z,96152.50
2022-08-23T00:45:54.023Z,96154.69
2022-08-23T00:48:20.374Z,96154.06
2022-08-23T00:50:46.729Z,96157.84
2022-08-23T00:53:13.095Z,96149.34
2022-08-23T00:55:39.457Z,96150.94
2022-08-23T00:58:05.816Z,96148.25
2022-08-23T01:00:32.193Z,96146.97
2022-08-23T01:02:58.573Z,96142.44
2022-08-23T01:05:24.947Z,96153.13
2022-08-23T01:07:51.317Z,96150.94
2022-08-23T01:10:20.086Z,96149.34
2022-08-23T01:12:47.514Z,96146.22
2022-08-23T01:15:13.864Z,96148.91
2022-08-23T01:17:40.219Z,96153.47
2022-08-23T01:20:06.600Z,96153.13
2022-08-23T01:22:32.974Z,96160.06
2022-08-23T01:25:08.167Z,96164.31
2022-08-23T01:27:35.217Z,96165.41
2022-08-23T01:30:01.616Z,96165.41
2022-08-23T01:32:27.980Z,96161.81
2022-08-23T01:34:54.360Z,96170.31
2022-08-23T01:37:20.718Z,96172.19
2022-08-23T01:39:47.104Z,96164.16
2022-08-23T01:42:13.481Z,96160.69
2022-08-23T01:44:39.847Z,96165.28
2022-08-23T01:47:06.200Z,96169.53
2022-08-23T01:49:32.569Z,96161.50
2022-08-23T01:51:58.950Z,96164.47
2022-08-23T01:54:25.313Z,96166.03
2022-08-23T01:56:51.674Z,96173.00
2022-08-23T01:59:18.039Z,96177.88
2022-08-23T02:01:44.467Z,96178.97
2022-08-23T02:04:10.883Z,96177.88
2022-08-23T02:06:37.234Z,96175.50
2022-08-23T02:09:03.908Z,96177.38
2022-08-23T02:11:30.322Z,96178.97
2022-08-23T02:13:56.702Z,96185.91
2022-08-23T02:16:23.066Z,96176.75
2022-08-23T02:18:49.430Z,96180.06
2022-08-23T02:21:15.801Z,96186.69
2022-08-23T02:23:42.184Z,96189.06
2022-08-23T02:26:08.539Z,96185.91
2022-08-23T02:28:34.889Z,96189.69
2022-08-23T02:31:01.247Z,96193.47
2022-08-23T02:33:28.802Z,96201.16
2022-08-23T02:35:55.165Z,96196.63
2022-08-23T02:38:21.524Z,96186.53
2022-08-23T02:40:47.897Z,96194.09
2022-08-23T02:43:19.502Z,96198.81
2022-08-23T02:45:45.862Z,96201.97
2022-08-23T02:48:12.233Z,96192.69
2022-08-23T02:50:38.589Z,96196.63
2022-08-23T02:53:04.961Z,96197.25
2022-08-23T02:55:31.312Z,96198.38
2022-08-23T02:57:57.705Z,96199.44
2022-08-23T03:00:24.093Z,96202.59
2022-08-23T03:02:50.446Z,96199.13
2022-08-23T03:05:16.805Z,96198.81
2022-08-23T03:07:43.159Z,96202.59
2022-08-23T03:10:09.512Z,96201.03
2022-08-23T03:12:35.873Z,96201.81
2022-08-23T03:15:02.245Z,96207.16
2022-08-23T03:17:28.608Z,96206.41
2022-08-23T03:19:54.968Z,96201.69
2022-08-23T03:22:21.319Z,96203.25
2022-08-23T03:24:47.675Z,96200.06
2022-08-23T03:27:14.046Z,96207.47
2022-08-23T03:29:40.403Z,96207.97
2022-08-23T03:32:06.764Z,96213.78
2022-08-23T03:34:33.121Z,96199.13
2022-08-23T03:36:59.489Z,96202.72
2022-08-23T03:39:25.867Z,96210.16
2022-08-23T03:41:52.238Z,96202.59
2022-08-23T03:44:18.633Z,96207.47
2022-08-23T03:46:44.988Z,96206.53
2022-08-23T03:49:11.356Z,96209.72
2022-08-23T03:51:37.709Z,96209.84
2022-08-23T03:54:04.069Z,96209.19
2022-08-23T03:56:30.426Z,96209.19
2022-08-23T03:58:56.780Z,96209.19
2022-08-23T04:01:26.619Z,96217.56
2022-08-23T04:03:55.040Z,96218.34
2022-08-23T04:06:21.409Z,96219.31
2022-08-23T04:08:47.771Z,96232.19
2022-08-23T04:11:14.128Z,96229.69
2022-08-23T04:13:40.492Z,96228.25
2022-08-23T04:16:06.858Z,96235.38
2022-08-23T04:18:33.213Z,96237.09
2022-08-23T04:20:59.568Z,96241.97
2022-08-23T04:23:25.931Z,96248.88
2022-08-23T04:25:52.293Z,96246.69
2022-08-23T04:28:18.780Z,96246.84
2022-08-23T04:30:45.172Z,96253.78
2022-08-23T04:33:17.723Z,96261.19
2022-08-23T04:35:44.504Z,96254.72
2022-08-23T04:38:24.483Z,96258.03
2022-08-23T04:40:51.718Z,96258.66
2022-08-23T04:43:18.076Z,96262.75
2022-08-23T04:45:44.428Z,96269.66
2022-08-23T04:48:12.178Z,96270.28
2022-08-23T04:50:38.641Z,96279.44
2022-08-23T04:53:05.010Z,96282.25
2022-08-23T04:55:31.364Z,96279.59
2022-08-23T04:58:02.079Z,96284.00
2022-08-23T05:00:28.643Z,96283.84
2022-08-23T05:02:55.008Z,96283.84
2022-08-23T05:05:21.371Z,96286.97
2022-08-23T05:07:47.757Z,96284.78
2022-08-23T05:10:14.124Z,96290.78
2022-08-23T05:12:40.488Z,96292.34
2022-08-23T05:15:06.848Z,96292.19
2022-08-23T05:17:33.214Z,96295.81
2022-08-23T05:19:59.577Z,96299.13
2022-08-23T05:22:25.941Z,96305.91
2022-08-23T05:24:52.293Z,96303.69
2022-08-23T05:27:18.651Z,96308.72
2022-08-23T05:29:44.999Z,96310.28
2022-08-23T05:32:11.347Z,96310.47
2022-08-23T05:34:37.697Z,96314.38
2022-08-23T05:37:04.052Z,96314.88
2022-08-23T05:39:30.414Z,96317.53
2022-08-23T05:42:03.195Z,96310.63
2022-08-23T05:44:29.556Z,96322.09
2022-08-23T05:47:01.405Z,96321.25
2022-08-23T05:49:28.157Z,96320.66
2022-08-23T05:51:54.522Z,96317.06
2022-08-23T05:54:20.901Z,96326.88
2022-08-23T05:56:47.259Z,96320.00
2022-08-23T05:59:13.604Z,96324.47
2022-08-23T06:01:39.960Z,96332.31
2022-08-23T06:04:08.021Z,96331.84
2022-08-23T06:06:36.431Z,96329.19
2022-08-23T06:09:04.180Z,96336.72
2022-08-23T06:11:30.546Z,96335.47
2022-08-23T06:13:56.952Z,96333.91
2022-08-23T06:16:23.372Z,96335.16
2022-08-23T06:18:49.750Z,96331.41
2022-08-23T06:21:16.108Z,96331.69
2022-08-23T06:23:42.483Z,96328.88
2022-08-23T06:26:08.845Z,96332.63
2022-08-23T06:28:35.247Z,96328.66
2022-08-23T06:31:16.971Z,96330.47
2022-08-23T06:33:43.491Z,96334.25
2022-08-23T06:36:09.879Z,96327.16
2022-08-23T06:38:36.247Z,96332.19
2022-08-23T06:41:02.642Z,96335.78
2022-08-23T06:43:29.038Z,96334.38
2022-08-23T06:45:58.383Z,96331.06
2022-08-23T06:48:24.912Z,96343.97
2022-08-23T06:50:51.277Z,96339.06
2022-08-23T06:53:17.650Z,96348.69
2022-08-23T06:55:44.091Z,96343.69
2022-08-23T06:58:10.486Z,96345.06
2022-08-23T07:00:39.723Z,96348.66
2022-08-23T07:03:06.161Z,96339.88
2022-08-23T07:05:32.610Z,96346.00
2022-08-23T07:07:59.035Z,96344.28
2022-08-23T07:10:25.431Z,96343.50
2022-08-23T07:12:51.808Z,96345.09
2022-08-23T07:15:18.174Z,96341.00
2022-08-23T07:17:44.532Z,96339.41
2022-08-23T07:20:10.921Z,96341.13
2022-08-23T07:22:37.310Z,96341.78
2022-08-23T07:25:03.675Z,96345.25
2022-08-23T07:27:30.037Z,96346.38
2022-08-23T07:29:56.410Z,96347.47
2022-08-23T07:32:22.763Z,96348.72
2022-08-23T07:34:49.214Z,96345.88
2022-08-23T07:37:15.891Z,96350.59
2022-08-23T07:39:42.343Z,96353.16
2022-08-23T07:42:23.757Z,96358.31
2022-08-23T07:44:51.670Z,96347.13
2022-08-23T07:50:12.048Z,96355.03
2022-08-23T07:52:41.098Z,96360.38
2022-08-23T07:55:07.832Z,96355.84
2022-08-23T07:57:34.213Z,96355.31
2022-08-23T08:00:00.570Z,96352.53
2022-08-23T08:02:26.961Z,96367.16
2022-08-23T08:04:53.333Z,96362.13
2022-08-23T08:07:21.101Z,96366.06
2022-08-23T08:09:47.979Z,96364.94
2022-08-23T08:12:14.338Z,96365.75
2022-08-23T08:14:41.813Z,96371.13
2022-08-23T08:17:08.220Z,96362.91
2022-08-23T08:19:34.595Z,96365.13
2022-08-23T08:22:00.988Z,96365.72
2022-08-23T08:24:27.344Z,96365.56
2022-08-23T08:26:53.696Z,96367.44
2022-08-23T08:29:20.077Z,96366.34
2022-08-23T08:31:46.453Z,96369.16
2022-08-23T08:34:12.816Z,96366.00
2022-08-23T08:36:39.348Z,96360.06
2022-08-23T08:39:05.762Z,96363.88
2022-08-23T08:41:32.892Z,96358.63
2022-08-23T08:43:59.271Z,96365.13
2022-08-23T08:46:25.931Z,96363.41
2022-08-23T08:48:52.509Z,96363.22
2022-08-23T08:51:18.860Z,96362.59
2022-08-23T08:53:45.223Z,96365.75
2022-08-23T08:56:11.605Z,96357.09
2022-08-23T08:58:42.933Z,96362.28
2022-08-23T09:01:09.301Z,96361.50
2022-08-23T09:03:35.714Z,96355.66
2022-08-23T09:06:02.096Z,96354.41
2022-08-23T09:08:28.456Z,96360.38
2022-08-23T09:10:54.830Z,96360.69
2022-08-23T09:13:24.900Z,96356.28
2022-08-23T09:15:51.292Z,96357.88
2022-08-23T09:18:17.675Z,96356.91
2022-08-23T09:20:44.045Z,96364.94
2022-08-23T09:23:10.400Z,96358.94
2022-08-23T09:25:36.760Z,96356.59
2022-08-23T09:28:03.111Z,96357.53
2022-08-23T09:30:29.468Z,96356.59
2022-08-23T09:32:55.824Z,96359.09
2022-08-23T09:35:22.197Z,96354.25
2022-08-23T09:37:48.561Z,96359.09
2022-08-23T09:40:16.342Z,96367.31
2022-08-23T09:42:44.220Z,96355.97
2022-08-23T09:45:11.075Z,96352.19
2022-08-23T09:47:43.286Z,96348.56
2022-08-23T09:50:11.271Z,96345.56
2022-08-23T09:52:37.628Z,96343.81
2022-08-23T09:55:03.985Z,96341.78
2022-08-23T09:57:30.344Z,96337.22
2022-08-23T09:59:56.735Z,96338.00
2022-08-23T10:02:23.097Z,96327.44
2022-08-23T10:04:49.499Z,96336.25
2022-08-23T10:07:15.889Z,96326.00
2022-08-23T10:09:42.278Z,96338.91
2022-08-23T10:12:08.644Z,96328.53
2022-08-23T10:14:36.728Z,96319.53
2022-08-23T10:17:03.624Z,96321.41
2022-08-23T10:19:29.985Z,96312.25
2022-08-23T10:21:57.273Z,96308.66
2022-08-23T10:24:23.635Z,96317.19
2022-08-23T10:26:50.003Z,96314.94
2022-08-23T10:29:16.358Z,96312.91
2022-08-23T10:31:43.505Z,96306.41
2022-08-23T10:34:09.937Z,96307.53
2022-08-23T10:36:36.288Z,96300.59
2022-08-23T10:39:02.646Z,96302.31
2022-08-23T10:41:29.016Z,96295.84
2022-08-23T10:43:55.377Z,96289.69
2022-08-23T10:46:21.806Z,96298.06
2022-08-23T10:48:48.188Z,96294.94
2022-08-23T10:51:14.551Z,96298.72
2022-08-23T10:53:41.139Z,96295.09
2022-08-23T10:56:07.506Z,96286.75
2022-08-23T10:58:33.868Z,96287.06
2022-08-23T11:01:00.732Z,96287.50
2022-08-23T11:03:29.095Z,96283.63
2022-08-23T11:05:55.547Z,96290.66
2022-08-23T11:08:21.908Z,96268.75
2022-08-23T11:10:53.566Z,96282.28
2022-08-23T11:13:23.248Z,96277.75
2022-08-23T11:15:49.646Z,96267.97
2022-08-23T11:18:16.031Z,96268.41
2022-08-23T11:20:42.416Z,96267.16
2022-08-23T11:23:08.987Z,96266.97
2022-08-23T11:25:35.348Z,96274.09
2022-08-23T11:28:01.873Z,96271.91
2022-08-23T11:30:28.389Z,96268.22
2022-08-23T11:32:54.896Z,96269.69
2022-08-23T11:35:21.346Z,96283.25
2022-08-23T11:37:47.961Z,96272.63
2022-08-23T11:40:18.400Z,96275.19
2022-08-23T11:42:44.971Z,96283.25
2022-08-23T11:45:11.822Z,96269.84
2022-08-23T11:47:39.449Z,96269.63
2022-08-23T11:50:05.861Z,96276.13
2022-08-23T11:52:32.213Z,96274.03
2022-08-23T11:54:58.570Z,96277.88
2022-08-23T11:57:24.949Z,96265.41
2022-08-23T11:59:51.318Z,96268.09
2022-08-23T12:02:18.097Z,96266.69
2022-08-23T12:04:47.369Z,96264.94
2022-08-23T12:07:14.097Z,96273.63
2022-08-23T12:09:40.450Z,96265.59
2022-08-23T12:12:06.808Z,96267.34
2022-08-23T12:14:33.167Z,96264.47
2022-08-23T12:16:59.522Z,96267.34
2022-08-23T12:19:25.932Z,96266.03
2022-08-23T12:21:52.309Z,96255.16
2022-08-23T12:24:18.673Z,96258.75
2022-08-23T12:26:45.043Z,96269.47
2022-08-23T12:29:11.440Z,96255.16
2022-08-23T12:31:37.866Z,96257.69
2022-08-23T12:34:04.282Z,96260.03
2022-08-23T12:36:30.648Z,96261.59
2022-08-23T12:38:57.014Z,96262.72
2022-08-23T12:41:23.395Z,96265.56
2022-08-23T12:43:49.764Z,96266.31
2022-08-23T12:46:16.152Z,96273.28
2022-08-23T12:48:42.526Z,96266.31
2022-08-23T12:51:08.889Z,96265.06
2022-08-23T12:53:35.265Z,96263.97
2022-08-23T12:56:01.637Z,96267.75
2022-08-23T12:58:31.648Z,96272.31
2022-08-23T13:00:59.714Z,96269.63
2022-08-23T13:03:26.114Z,96257.84
2022-08-23T13:05:52.738Z,96270.13
2022-08-23T13:08:19.222Z,96266.31
2022-08-23T13:10:49.178Z,96263.63
2022-08-23T13:13:15.555Z,96257.94
2022-08-23T13:15:41.947Z,96257.94
2022-08-23T13:18:08.347Z,96259.53
2022-08-23T13:20:34.710Z,96258.28
2022-08-23T13:23:01.289Z,96252.75
2022-08-23T13:25:29.841Z,96250.63
2022-08-23T13:27:58.167Z,96251.09
2022-08-23T13:30:24.539Z,96250.44
2022-08-23T13:32:50.920Z,96249.78
2022-08-23T13:35:17.526Z,96250.25
2022-08-23T13:37:45.701Z,96243.78
2022-08-23T13:40:13.206Z,96240.63
2022-08-23T13:42:39.598Z,96247.69
2022-08-23T13:45:05.976Z,96237.78
2022-08-23T13:47:32.345Z,96243.97
2022-08-23T13:50:07.325Z,96241.13
2022-08-23T13:52:56.630Z,96247.38
2022-08-23T13:55:22.496Z,96244.69
2022-08-23T13:57:48.856Z,96248.94
2022-08-23T14:00:19.289Z,96246.25
2022-08-23T14:02:46.030Z,96244.56
2022-08-23T14:05:12.414Z,96247.56
2022-08-23T14:07:38.817Z,96245.81
2022-08-23T14:10:05.177Z,96240.63
2022-08-23T14:12:31.550Z,96236.06
2022-08-23T14:14:57.925Z,96234.34
2022-08-23T14:17:24.307Z,96240.16
2022-08-23T14:22:37.018Z,96229.50
2022-08-23T14:25:03.367Z,96229.25
2022-08-23T14:27:29.742Z,96230.56
2022-08-23T14:29:56.114Z,96233.25
2022-08-23T14:32:22.489Z,96221.53
2022-08-23T14:34:48.853Z,96220.88
2022-08-23T14:38:02.825Z,96223.88
2022-08-23T14:40:01.619Z,96225.66
2022-08-23T14:42:28.075Z,96219.81
2022-08-23T14:44:54.434Z,96228.47
2022-08-23T14:47:20.789Z,96220.81
2022-08-23T14:49:49.013Z,96231.06
2022-08-23T14:52:18.433Z,96225.91
2022-08-23T14:54:44.810Z,96236.16
2022-08-23T14:57:11.217Z,96234.28
2022-08-23T14:59:37.572Z,96231.28
2022-08-23T15:02:03.931Z,96231.94
2022-08-23T15:04:34.091Z,96228.94
2022-08-23T15:07:17.360Z,96227.53
2022-08-23T15:09:44.836Z,96228.16
2022-08-23T15:14:57.545Z,96230.38
2022-08-23T15:17:28.766Z,96228.78
2022-08-23T15:19:57.502Z,96232.59
2022-08-23T15:22:23.885Z,96225.03
2022-08-23T15:24:52.379Z,96230.72
2022-08-23T15:27:18.740Z,96228.03
2022-08-23T15:29:45.096Z,96230.22
2022-08-23T15:32:12.649Z,96227.22
2022-08-23T15:34:40.147Z,96228.78
2022-08-23T15:37:12.105Z,96228.78
2022-08-23T15:39:38.482Z,96219.66
2022-08-23T15:42:04.840Z,96223.09
2022-08-23T15:44:31.205Z,96215.84
2022-08-23T15:46:57.557Z,96220.31
2022-08-23T15:49:24.542Z,96214.44
2022-08-23T15:51:50.914Z,96222.66
2022-08-23T15:54:17.282Z,96223.44
2022-08-23T15:56:43.645Z,96218.72
2022-08-23T15:59:10.002Z,96223.06
2022-08-23T16:01:36.406Z,96220.41
2022-08-23T16:04:02.790Z,96211.06
2022-08-23T16:06:32.145Z,96224.31
2022-08-23T16:09:00.831Z,96221.31
2022-08-23T16:11:27.182Z,96221.78
2022-08-23T16:13:55.229Z,96222.44
2022-08-23T16:16:22.188Z,96219.41
2022-08-23T16:18:48.593Z,96219.28
2022-08-23T16:21:14.968Z,96216.16
2022-08-23T16:23:41.333Z,96218.38
2022-08-23T16:26:07.697Z,96219.94
2022-08-23T16:28:34.053Z,96211.44
2022-08-23T16:31:00.454Z,96214.13
2022-08-23T16:33:26.874Z,96214.13
2022-08-23T16:35:53.231Z,96217.41
2022-08-23T16:38:19.601Z,96215.38
2022-08-23T16:40:45.964Z,96215.22
2022-08-23T16:43:12.339Z,96215.22
2022-08-23T16:45:38.724Z,96212.06
2022-08-23T16:48:05.111Z,96213.66
2022-08-23T16:50:31.476Z,96216.66
2022-08-23T16:52:57.860Z,96218.22
2022-08-23T16:55:24.218Z,96227.06
2022-08-23T16:57:50.577Z,96218.06
2022-08-23T17:00:16.933Z,96221.53
2022-08-23T17:02:43.355Z,96221.88
2022-08-23T17:05:09.723Z,96221.06
2022-08-23T17:07:36.086Z,96223.25
2022-08-23T17:10:02.445Z,96223.72
2022-08-23T17:12:28.796Z,96218.06
2022-08-23T17:14:55.155Z,96224.06
2022-08-23T17:17:21.510Z,96230.56
2022-08-23T17:19:47.874Z,96230.56
2022-08-23T17:22:14.253Z,96223.16
2022-08-23T17:24:40.615Z,96233.41
2022-08-23T17:27:06.976Z,96235.00
2022-08-23T17:29:37.299Z,96238.59
2022-08-23T17:32:04.139Z,96239.25
2022-08-23T17:34:30.577Z,96231.84
2022-08-23T17:36:56.969Z,96238.78
2022-08-23T17:39:23.331Z,96239.25
2022-08-23T17:41:49.679Z,96240.69
2022-08-23T17:44:16.040Z,96246.81
2022-08-23T17:46:42.398Z,96252.16
2022-08-23T17:49:08.757Z,96253.75
2022-08-23T17:51:35.111Z,96261.47
2022-08-23T17:54:01.465Z,96262.13
2022-08-23T17:56:27.812Z,96259.25
2022-08-23T17:58:54.164Z,96260.03
2022-08-23T18:01:21.057Z,96266.00
2022-08-23T18:03:47.452Z,96261.59
2022-08-23T18:06:17.019Z,96258.47
2022-08-23T18:08:43.744Z,96266.03
2022-08-23T18:11:10.104Z,96275.19
2022-08-23T18:13:36.459Z,96268.91
2022-08-23T18:16:02.837Z,96281.53
2022-08-23T18:18:29.223Z,96272.69
2022-08-23T18:20:55.585Z,96278.97
2022-08-23T18:23:21.956Z,96292.69
2022-08-23T18:25:48.390Z,96291.94
2022-08-23T18:28:14.739Z,96297.94
2022-08-23T18:30:41.087Z,96293.66
2022-08-23T18:33:07.455Z,96293.66
2022-08-23T18:35:38.897Z,96288.28
2022-08-23T18:38:05.269Z,96296.66
2022-08-23T18:40:31.746Z,96301.69
2022-08-23T18:42:58.203Z,96301.06
2022-08-23T18:45:24.669Z,96305.16
2022-08-23T18:47:51.053Z,96304.66
2022-08-23T18:50:17.426Z,96312.41
2022-08-23T18:52:43.790Z,96310.53
2022-08-23T18:55:10.141Z,96319.97
2022-08-23T18:57:36.523Z,96322.66
2022-08-23T19:00:02.882Z,96326.75
2022-08-23T19:02:29.305Z,96331.34
2022-08-23T19:04:55.771Z,96335.09
2022-08-23T19:07:22.132Z,96332.09
2022-08-23T19:09:48.492Z,96345.81
2022-08-23T19:12:14.861Z,96341.91
2022-08-23T19:14:41.225Z,96344.56
2022-08-23T19:17:07.580Z,96352.91
2022-08-23T19:19:33.956Z,96352.78
2022-08-23T19:22:00.312Z,96356.53
2022-08-23T19:24:26.680Z,96355.13
2022-08-23T19:26:53.034Z,96365.84
2022-08-23T19:29:19.399Z,96365.06
2022-08-23T19:31:45.790Z,96364.44
2022-08-23T19:34:12.177Z,96369.81
2022-08-23T19:36:49.064Z,96373.09
2022-08-23T19:39:18.246Z,96368.69
2022-08-23T19:41:44.599Z,96371.06
2022-08-23T19:44:10.951Z,96372.63
2022-08-23T19:46:37.321Z,96377.97
2022-08-23T19:49:07.135Z,96373.88
2022-08-23T19:51:33.704Z,96377.06
2022-08-23T19:54:00.072Z,96378.31
2022-08-23T19:56:26.446Z,96383.03
2022-08-23T19:58:53.584Z,96375.16
2022-08-23T20:01:19.989Z,96381.00
2022-08-23T20:03:46.372Z,96375.81
2022-08-23T20:06:17.753Z,96372.03
2022-08-23T20:08:45.400Z,96372.03
2022-08-23T20:11:11.751Z,96381.97
2022-08-23T20:13:38.153Z,96380.53
2022-08-23T20:16:04.576Z,96383.06
2022-08-23T20:18:30.956Z,96379.91
2022-08-23T20:20:57.327Z,96384.16
2022-08-23T20:23:23.681Z,96391.25
2022-08-23T20:25:50.041Z,96385.88
2022-08-23T20:28:16.413Z,96379.59
2022-08-23T20:30:42.768Z,96383.06
2022-08-23T20:33:09.133Z,96381.16
2022-08-23T20:35:35.500Z,96381.16
2022-08-23T20:38:02.014Z,96375.81
2022-08-23T20:40:28.537Z,96382.75
2022-08-23T20:42:54.917Z,96380.53
2022-08-23T20:45:21.292Z,96383.69
2022-08-23T20:47:47.650Z,96369.16
2022-08-23T20:50:14.004Z,96379.88
2022-08-23T20:52:40.383Z,96380.53
2022-08-23T20:55:07.840Z,96379.88
2022-08-23T20:57:38.637Z,96372.31
2022-08-23T21:00:05.072Z,96372.03
2022-08-23T21:02:31.548Z,96375.31
2022-08-23T21:04:58.019Z,96369.16
2022-08-23T21:07:24.378Z,96369.81
2022-08-23T21:09:54.275Z,96369.81
2022-08-23T21:12:20.633Z,96367.94
2022-08-23T21:14:47.002Z,96368.88
2022-08-23T21:17:13.361Z,96369.50
2022-08-23T21:19:39.771Z,96373.31
2022-08-23T21:22:06.136Z,96377.22
2022-08-23T21:24:32.492Z,96374.56
2022-08-23T21:26:58.844Z,96365.28
2022-08-23T21:29:25.215Z,96355.50
2022-08-23T21:31:52.190Z,96365.44
2022-08-23T21:34:18.553Z,96355.03
2022-08-23T21:36:44.910Z,96357.38
2022-08-23T21:39:11.269Z,96368.25
2022-08-23T21:41:37.618Z,96365.44
2022-08-23T21:44:03.988Z,96363.38
2022-08-23T21:46:30.401Z,96366.06
2022-08-23T21:48:56.821Z,96362.91
2022-08-23T21:51:23.178Z,96359.44
2022-08-23T21:53:49.531Z,96364.78
2022-08-23T21:56:15.883Z,96362.25
2022-08-23T21:58:42.234Z,96362.25
2022-08-23T22:01:08.621Z,96359.09
2022-08-23T22:03:35.197Z,96361.78
2022-08-23T22:06:01.556Z,96361.34
2022-08-23T22:08:27.915Z,96358.19
2022-08-23T22:10:57.752Z,96359.75
2022-08-23T22:13:24.664Z,96356.28
2022-08-23T22:15:51.078Z,96349.81
2022-08-23T22:18:17.480Z,96349.50
2022-08-23T22:20:43.841Z,96348.25
2022-08-23T22:23:10.195Z,96347.31
2022-08-23T22:25:36.552Z,96355.81
2022-08-23T22:28:02.856Z,96342.09
2022-08-23T22:30:29.169Z,96347.47
2022-08-23T22:32:55.500Z,96343.38
2022-08-23T22:35:21.812Z,96344.50
2022-08-23T22:38:10.246Z,96348.25
2022-08-23T22:40:34.419Z,96346.69
2022-08-23T22:43:00.723Z,96346.22
2022-08-23T22:45:27.029Z,96349.66
2022-08-23T22:47:53.345Z,96356.91
2022-08-23T22:50:19.700Z,96351.72
2022-08-23T22:52:46.059Z,96354.56
2022-08-23T22:55:12.407Z,96357.88
2022-08-23T22:57:38.783Z,96358.66
2022-08-23T23:00:05.137Z,96356.28
2022-08-23T23:02:31.566Z,96359.44
2022-08-23T23:04:57.925Z,96355.84
2022-08-23T23:07:24.281Z,96357.53
2022-08-23T23:09:50.650Z,96350.00
2022-08-23T23:12:17.002Z,96344.63
2022-08-23T23:14:43.363Z,96349.06
2022-08-23T23:17:09.762Z,96342.13
2022-08-23T23:19:36.169Z,96340.72
2022-08-23T23:22:02.519Z,96340.22
2022-08-23T23:24:28.881Z,96344.00
2022-08-23T23:26:55.239Z,96340.84
2022-08-23T23:29:21.618Z,96339.91
2022-08-23T23:31:47.968Z,96331.88
2022-08-23T23:34:14.334Z,96337.72
2022-08-23T23:36:40.693Z,96337.88
2022-08-23T23:39:07.061Z,96337.41
2022-08-23T23:41:33.424Z,96336.00
2022-08-23T23:43:59.787Z,96338.50
2022-08-23T23:46:26.211Z,96332.19
2022-08-23T23:48:52.619Z,96326.06
2022-08-23T23:51:19.041Z,96332.03
2022-08-23T23:53:45.395Z,96339.00
2022-08-23T23:56:11.750Z,96341.19
2022-08-23T23:58:38.097Z,96333.63
